Time;durP1;ratioP1;P1;durP2;ratioP2;P2;SDS_P1;SDS_P2;PMS_P1;PMS_P2;Temp;Humidity;BMP_temperature;BMP_pressure;BME280_temperature;BME280_humidity;BME280_pressure;Samples;Min_cycle;Max_cycle;Signal;HPM_P1;HPM_P2
2023/07/04 00:01:25;;;;;;;10.93;4.82;;;15.80;1.00;;;;;;5075376;28;20227;-84
2023/07/04 00:03:55;;;;;;;9.93;4.78;;;15.80;1.00;;;;;;5075676;28;20290;-85
2023/07/04 00:06:23;;;;;;;9.52;4.97;;;15.70;1.00;;;;;;5074755;28;20739;-84
2023/07/04 00:08:51;;;;;;;9.68;4.20;;;15.70;1.00;;;;;;5074110;28;20222;-84
2023/07/04 00:11:20;;;;;;;12.18;5.30;;;15.70;1.00;;;;;;5081697;28;20241;-84
2023/07/04 00:13:49;;;;;;;13.10;5.57;;;15.70;1.00;;;;;;5077323;28;20199;-85
2023/07/04 00:16:16;;;;;;;12.10;5.10;;;15.70;1.00;;;;;;5075570;28;20207;-84
2023/07/04 00:18:45;;;;;;;8.50;4.50;;;15.70;1.00;;;;;;5077062;28;20281;-83
2023/07/04 00:21:14;;;;;;;15.93;5.32;;;15.70;1.00;;;;;;5074087;28;20669;-84
2023/07/04 00:23:45;;;;;;;11.75;4.95;;;15.90;1.00;;;;;;5078241;28;20687;-84
2023/07/04 00:26:12;;;;;;;10.25;4.57;;;15.80;1.00;;;;;;5075948;28;20533;-84
2023/07/04 00:28:40;;;;;;;12.48;4.97;;;15.80;1.00;;;;;;5075917;28;20223;-85
2023/07/04 00:31:08;;;;;;;12.07;4.90;;;15.90;1.00;;;;;;5077629;28;20700;-84
2023/07/04 00:33:36;;;;;;;10.73;5.15;;;15.90;1.00;;;;;;5066569;28;20221;-83
2023/07/04 00:36:05;;;;;;;12.00;4.57;;;15.90;1.00;;;;;;5076049;28;20243;-84
2023/07/04 00:38:34;;;;;;;10.90;4.45;;;15.90;1.00;;;;;;5065987;28;20257;-84
2023/07/04 00:41:02;;;;;;;8.18;4.93;;;15.90;1.00;;;;;;5075517;28;20238;-84
2023/07/04 00:43:57;;;;;;;10.25;4.55;;;15.80;1.00;;;;;;5076133;28;20196;-85
2023/07/04 00:46:37;;;;;;;13.45;5.00;;;15.80;1.00;;;;;;5075031;28;20226;-84
2023/07/04 00:49:18;;;;;;;10.75;4.40;;;15.80;1.00;;;;;;5076256;28;20237;-84
2023/07/04 00:51:50;;;;;;;13.05;4.82;;;15.80;1.00;;;;;;5074367;28;20621;-84
2023/07/04 00:54:20;;;;;;;8.55;4.50;;;15.80;1.00;;;;;;5061028;28;20766;-84
2023/07/04 00:56:47;;;;;;;9.90;4.68;;;15.70;1.00;;;;;;5073500;28;20281;-84
2023/07/04 00:59:14;;;;;;;11.75;4.93;;;15.70;1.00;;;;;;5074681;28;20719;-84
2023/07/04 01:01:42;;;;;;;11.90;4.80;;;15.70;1.00;;;;;;5076838;28;20207;-84
2023/07/04 01:04:09;;;;;;;9.85;4.55;;;15.70;1.00;;;;;;5075746;28;20608;-84
2023/07/04 01:06:43;;;;;;;8.95;4.28;;;15.70;1.00;;;;;;5075259;28;20664;-84
2023/07/04 01:09:12;;;;;;;12.52;4.40;;;15.70;1.00;;;;;;5074150;28;20198;-84
2023/07/04 01:11:44;;;;;;;10.70;4.63;;;15.70;1.00;;;;;;5082153;28;20204;-84
2023/07/04 01:14:19;;;;;;;7.63;4.60;;;15.70;1.00;;;;;;5068366;28;20196;-84
2023/07/04 01:16:46;;;;;;;9.18;4.60;;;15.70;1.00;;;;;;5076140;28;20295;-83
2023/07/04 01:19:19;;;;;;;10.82;4.90;;;15.70;1.00;;;;;;5074219;28;20248;-84
2023/07/04 01:21:51;;;;;;;11.48;4.55;;;15.60;1.00;;;;;;5076332;28;20220;-84
2023/07/04 01:24:29;;;;;;;10.43;4.93;;;15.60;1.00;;;;;;5065717;28;20217;-84
2023/07/04 01:26:57;;;;;;;8.75;5.15;;;15.60;1.00;;;;;;5074000;28;20291;-84
2023/07/04 01:29:24;;;;;;;9.27;5.10;;;15.60;1.00;;;;;;5072877;28;20224;-84
2023/07/04 01:31:51;;;;;;;10.07;4.72;;;15.60;1.00;;;;;;5077348;28;20199;-84
2023/07/04 01:34:20;;;;;;;11.60;5.03;;;15.60;1.00;;;;;;5073683;28;20198;-84
2023/07/04 01:36:47;;;;;;;11.05;4.90;;;15.60;1.00;;;;;;5073823;28;20201;-82
2023/07/04 01:39:15;;;;;;;9.30;4.65;;;15.60;1.00;;;;;;5075098;28;20606;-83
2023/07/04 01:41:45;;;;;;;11.50;5.13;;;15.60;1.00;;;;;;5070297;28;20681;-84
2023/07/04 01:44:16;;;;;;;14.52;5.32;;;15.60;1.00;;;;;;5074432;28;20253;-84
2023/07/04 01:46:44;;;;;;;10.18;5.25;;;15.50;1.00;;;;;;5074191;28;20200;-84
2023/07/04 01:49:11;;;;;;;8.15;4.68;;;15.50;1.00;;;;;;5075089;28;20252;-84
2023/07/04 01:51:41;;;;;;;8.52;5.40;;;15.50;1.00;;;;;;5076878;28;20199;-84
2023/07/04 01:54:09;;;;;;;8.48;5.00;;;15.40;1.00;;;;;;5071456;28;20198;-83
2023/07/04 01:56:38;;;;;;;12.43;5.50;;;15.40;2.50;;;;;;5064879;28;20245;-84
2023/07/04 01:59:07;;;;;;;10.35;4.78;;;15.40;27.70;;;;;;5076342;28;20600;-83
2023/07/04 02:01:35;;;;;;;12.57;4.93;;;15.40;53.40;;;;;;5073632;28;20232;-83
2023/07/04 02:04:02;;;;;;;13.20;4.88;;;15.30;66.80;;;;;;5073580;28;20234;-84
2023/07/04 02:06:29;;;;;;;12.63;4.82;;;15.30;78.40;;;;;;5075212;28;20731;-83
2023/07/04 02:08:56;;;;;;;8.45;4.43;;;15.30;93.30;;;;;;5072675;28;20205;-84
2023/07/04 02:11:23;;;;;;;12.13;5.13;;;15.30;99.90;;;;;;5079024;28;20569;-83
2023/07/04 02:13:51;;;;;;;10.95;5.10;;;15.20;99.90;;;;;;5065497;28;20199;-84
2023/07/04 02:16:18;;;;;;;12.20;4.93;;;15.20;99.90;;;;;;5073264;28;20220;-84
2023/07/04 02:18:46;;;;;;;10.85;4.95;;;15.20;99.90;;;;;;5076115;28;20206;-84
2023/07/04 02:21:13;;;;;;;10.88;5.07;;;15.10;99.90;;;;;;5066777;28;20248;-84
2023/07/04 02:23:40;;;;;;;14.70;4.97;;;15.10;99.90;;;;;;5063951;28;20988;-84
2023/07/04 02:26:07;;;;;;;11.97;5.03;;;15.10;99.90;;;;;;5075303;28;20652;-84
2023/07/04 02:28:36;;;;;;;10.65;4.63;;;15.20;99.90;;;;;;5070030;28;20261;-83
2023/07/04 02:31:03;;;;;;;10.85;5.35;;;15.20;99.90;;;;;;5073263;28;20201;-83
2023/07/04 02:33:30;;;;;;;8.43;4.70;;;15.20;99.90;;;;;;5069816;28;20199;-84
2023/07/04 02:35:58;;;;;;;12.45;5.07;;;15.20;99.90;;;;;;5071609;28;20292;-84
2023/07/04 02:38:25;;;;;;;8.63;4.78;;;15.30;99.90;;;;;;5071360;28;20271;-83
2023/07/04 02:40:52;;;;;;;12.32;4.70;;;15.30;99.90;;;;;;5077579;28;20725;-83
2023/07/04 02:43:19;;;;;;;15.07;5.53;;;15.30;99.90;;;;;;5075834;28;20615;-83
2023/07/04 02:45:46;;;;;;;9.40;5.03;;;15.20;99.90;;;;;;5067480;28;20198;-84
2023/07/04 02:48:15;;;;;;;10.70;4.97;;;15.20;99.90;;;;;;5074595;28;20225;-83
2023/07/04 02:50:42;;;;;;;8.15;4.50;;;15.10;99.90;;;;;;5069100;28;20211;-84
2023/07/04 02:53:10;;;;;;;8.65;4.82;;;15.10;99.90;;;;;;5076624;28;20610;-83
2023/07/04 02:55:37;;;;;;;10.20;4.78;;;15.20;99.90;;;;;;5064929;28;20272;-83
2023/07/04 02:58:04;;;;;;;9.93;4.50;;;15.30;99.90;;;;;;5066504;28;20664;-83
2023/07/04 03:00:31;;;;;;;12.45;5.00;;;15.30;99.90;;;;;;5071127;28;20733;-83
2023/07/04 03:02:58;;;;;;;11.47;5.03;;;15.30;99.90;;;;;;5073135;28;20204;-83
2023/07/04 03:05:27;;;;;;;10.05;4.90;;;15.40;99.90;;;;;;5067568;28;20196;-83
2023/07/04 03:07:54;;;;;;;9.48;4.90;;;15.40;99.90;;;;;;5077970;28;20207;-84
2023/07/04 03:10:23;;;;;;;7.65;4.65;;;15.50;99.90;;;;;;5084137;28;20669;-83
2023/07/04 03:12:49;;;;;;;11.32;5.15;;;15.50;99.90;;;;;;5077456;28;20566;-84
2023/07/04 03:15:17;;;;;;;11.52;5.20;;;15.50;99.90;;;;;;5073844;28;20223;-83
2023/07/04 03:17:43;;;;;;;8.98;4.60;;;15.50;99.90;;;;;;5073295;28;20253;-83
2023/07/04 03:20:12;;;;;;;8.50;4.57;;;15.60;99.90;;;;;;5077989;28;20247;-83
2023/07/04 03:22:40;;;;;;;10.80;4.38;;;15.60;99.90;;;;;;5076459;28;20210;-83
2023/07/04 03:25:08;;;;;;;11.88;4.50;;;15.60;99.90;;;;;;5076145;28;20237;-84
2023/07/04 03:27:38;;;;;;;13.07;4.45;;;15.60;99.90;;;;;;5077765;28;20220;-83
2023/07/04 03:30:06;;;;;;;8.50;4.45;;;15.70;99.90;;;;;;5078281;28;20260;-83
2023/07/04 03:32:33;;;;;;;8.20;4.22;;;15.70;99.90;;;;;;5072631;28;20208;-83
2023/07/04 03:35:01;;;;;;;10.85;4.72;;;15.70;99.90;;;;;;5069596;28;20282;-82
2023/07/04 03:37:28;;;;;;;12.30;4.68;;;15.80;99.90;;;;;;5071678;28;20207;-83
2023/07/04 03:39:56;;;;;;;10.63;4.72;;;15.80;99.90;;;;;;5073664;28;20207;-84
2023/07/04 03:42:23;;;;;;;9.95;4.22;;;15.90;99.90;;;;;;5076090;28;20260;-84
2023/07/04 03:44:52;;;;;;;9.75;4.18;;;15.90;97.20;;;;;;5074856;28;20198;-85
2023/07/04 03:47:19;;;;;;;8.30;4.43;;;15.90;86.10;;;;;;5075846;28;20681;-84
2023/07/04 03:49:46;;;;;;;10.57;4.63;;;16.00;74.80;;;;;;5077832;28;20222;-84
2023/07/04 03:52:15;;;;;;;8.30;4.45;;;16.00;56.00;;;;;;5076248;28;20617;-83
2023/07/04 03:54:41;;;;;;;6.80;4.00;;;16.00;35.50;;;;;;5073253;28;20200;-83
2023/07/04 03:57:09;;;;;;;13.98;4.38;;;16.00;25.80;;;;;;5074834;28;20214;-83
2023/07/04 03:59:36;;;;;;;8.70;4.38;;;16.10;47.20;;;;;;5073146;28;20197;-83
2023/07/04 04:02:05;;;;;;;9.07;5.28;;;16.20;48.90;;;;;;5070942;28;20218;-84
2023/07/04 04:04:36;;;;;;;11.40;4.88;;;16.40;12.60;;;;;;5075910;28;20192;-83
2023/07/04 04:07:03;;;;;;;12.13;4.55;;;16.60;1.00;;;;;;5077434;28;20203;-83
2023/07/04 04:09:30;;;;;;;8.55;4.70;;;16.70;1.00;;;;;;5074860;28;20255;-83
2023/07/04 04:11:57;;;;;;;10.38;4.53;;;16.80;1.00;;;;;;5083921;28;20253;-84
2023/07/04 04:14:24;;;;;;;9.02;3.88;;;16.90;1.00;;;;;;5073900;28;20246;-84
2023/07/04 04:16:51;;;;;;;8.27;4.03;;;17.10;1.00;;;;;;5079223;28;20708;-84
2023/07/04 04:19:19;;;;;;;9.68;4.10;;;17.20;1.00;;;;;;5080073;28;20196;-84
2023/07/04 04:21:46;;;;;;;10.52;4.43;;;17.40;1.00;;;;;;5073206;28;20245;-84
2023/07/04 04:24:13;;;;;;;8.50;4.40;;;17.50;1.00;;;;;;5074405;28;20264;-84
2023/07/04 04:26:40;;;;;;;8.43;4.40;;;17.60;1.00;;;;;;5069845;28;20247;-84
2023/07/04 04:29:07;;;;;;;5.25;3.90;;;17.50;1.00;;;;;;5078524;28;20197;-84
2023/07/04 04:31:37;;;;;;;6.82;4.00;;;17.60;1.00;;;;;;5077190;28;20192;-84
2023/07/04 04:34:04;;;;;;;9.70;4.18;;;17.60;1.00;;;;;;5075115;28;20236;-84
2023/07/04 04:36:33;;;;;;;10.93;4.28;;;17.60;1.00;;;;;;5075135;28;20710;-84
2023/07/04 04:39:01;;;;;;;10.13;4.40;;;17.70;1.00;;;;;;5073683;28;20260;-85
2023/07/04 04:41:29;;;;;;;13.02;4.32;;;17.80;1.00;;;;;;5065832;28;20300;-84
2023/07/04 04:43:56;;;;;;;9.13;4.13;;;18.10;1.00;;;;;;5076885;28;21005;-84
2023/07/04 04:46:23;;;;;;;12.38;4.32;;;18.40;1.00;;;;;;5070215;28;20228;-84
2023/07/04 04:48:51;;;;;;;14.50;4.25;;;18.50;1.00;;;;;;5069374;28;20258;-83
2023/07/04 04:51:22;;;;;;;11.43;3.97;;;18.80;1.00;;;;;;5074713;28;20566;-84
2023/07/04 04:53:50;;;;;;;9.70;3.78;;;19.50;1.00;;;;;;5072250;28;20197;-84
2023/07/04 04:56:17;;;;;;;22.25;5.53;;;20.30;1.00;;;;;;5064038;28;20251;-84
2023/07/04 04:58:44;;;;;;;7.75;3.42;;;21.10;1.00;;;;;;5073870;28;20651;-84
2023/07/04 05:01:15;;;;;;;7.72;3.30;;;21.80;1.00;;;;;;5071478;28;20197;-83
2023/07/04 05:03:42;;;;;;;8.45;3.78;;;22.30;1.00;;;;;;5067869;28;20279;-82
2023/07/04 05:06:09;;;;;;;9.25;4.05;;;22.40;99.90;;;;;;5069437;28;20192;-84
2023/07/04 05:08:36;;;;;;;6.07;3.40;;;22.30;99.90;;;;;;5065508;28;20196;-83
2023/07/04 05:11:08;;;;;;;5.63;3.50;;;22.20;99.90;;;;;;5071739;28;20675;-85
2023/07/04 05:13:36;;;;;;;7.93;3.50;;;22.20;99.90;;;;;;5064370;28;20219;-84
2023/07/04 05:16:05;;;;;;;6.68;3.40;;;21.90;99.90;;;;;;5063378;28;20277;-84
2023/07/04 05:18:34;;;;;;;8.80;3.80;;;21.60;99.90;;;;;;5067322;28;20296;-84
2023/07/04 05:21:03;;;;;;;9.60;3.53;;;21.50;99.90;;;;;;5069691;28;20684;-84
2023/07/04 05:23:30;;;;;;;10.40;3.65;;;21.40;99.90;;;;;;5072237;28;20298;-84
2023/07/04 05:26:02;;;;;;;5.55;3.63;;;21.50;99.90;;;;;;5069625;28;20279;-84
2023/07/04 05:28:31;;;;;;;8.07;3.55;;;21.50;99.90;;;;;;5074208;28;20216;-84
2023/07/04 05:30:59;;;;;;;7.45;3.47;;;21.40;99.90;;;;;;5071320;28;20220;-85
2023/07/04 05:33:26;;;;;;;8.07;3.90;;;21.40;99.90;;;;;;5074220;28;20288;-83
2023/07/04 05:36:03;;;;;;;10.50;3.90;;;21.40;99.90;;;;;;5070040;28;20273;-84
2023/07/04 05:38:30;;;;;;;8.00;3.83;;;21.40;99.90;;;;;;5075313;28;20258;-84
2023/07/04 05:40:57;;;;;;;9.45;3.45;;;21.40;99.90;;;;;;5063983;28;20259;-84
2023/07/04 05:43:24;;;;;;;9.07;3.60;;;21.40;99.90;;;;;;5073745;28;20196;-84
2023/07/04 05:45:54;;;;;;;7.28;3.60;;;21.40;99.90;;;;;;5068424;28;20321;-84
2023/07/04 05:48:21;;;;;;;12.00;4.00;;;21.40;99.90;;;;;;5062152;28;20673;-84
2023/07/04 05:50:52;;;;;;;9.38;3.67;;;21.30;99.90;;;;;;5070907;28;20615;-84
2023/07/04 05:53:22;;;;;;;7.45;3.83;;;21.30;99.90;;;;;;5071796;28;20628;-85
2023/07/04 05:55:49;;;;;;;15.05;4.65;;;21.20;99.90;;;;;;5075267;28;20212;-84
2023/07/04 05:58:16;;;;;;;7.70;4.05;;;21.10;99.90;;;;;;5075395;28;20211;-84
2023/07/04 06:00:43;;;;;;;9.18;3.58;;;21.20;99.90;;;;;;5075266;28;20670;-84
2023/07/04 06:03:11;;;;;;;12.57;4.90;;;21.10;99.90;;;;;;5072884;28;20260;-84
2023/07/04 06:05:40;;;;;;;11.27;4.72;;;21.10;99.90;;;;;;5066569;28;20200;-84
2023/07/04 06:08:07;;;;;;;6.47;3.47;;;21.00;99.90;;;;;;5069096;28;20295;-83
2023/07/04 06:10:34;;;;;;;7.55;4.00;;;21.00;99.90;;;;;;5083892;28;20715;-84
2023/07/04 06:13:01;;;;;;;10.68;4.00;;;21.00;99.90;;;;;;5076212;28;20200;-84
2023/07/04 06:15:29;;;;;;;10.95;4.97;;;20.90;99.90;;;;;;5073665;28;20257;-83
2023/07/04 06:17:56;;;;;;;8.27;3.83;;;21.00;99.90;;;;;;5072608;28;20211;-83
2023/07/04 06:20:25;;;;;;;11.90;4.20;;;20.90;99.90;;;;;;5072961;28;20200;-84
2023/07/04 06:22:52;;;;;;;8.98;3.92;;;20.90;99.90;;;;;;5074737;28;20204;-83
2023/07/04 06:25:18;;;;;;;10.98;4.80;;;20.90;99.90;;;;;;5075746;28;20223;-84
2023/07/04 06:27:45;;;;;;;14.52;6.65;;;20.90;99.90;;;;;;5073281;28;20228;-84
2023/07/04 06:30:13;;;;;;;8.48;3.88;;;20.90;99.90;;;;;;5073324;28;20300;-83
2023/07/04 06:32:41;;;;;;;10.18;3.45;;;21.00;99.90;;;;;;5065493;28;20561;-84
2023/07/04 06:35:09;;;;;;;9.05;3.90;;;21.10;99.90;;;;;;5073726;28;20564;-84
2023/07/04 06:37:37;;;;;;;8.52;3.92;;;21.20;99.90;;;;;;5074334;28;20234;-84
2023/07/04 06:40:05;;;;;;;13.23;5.00;;;21.20;99.90;;;;;;5073722;28;20207;-84
2023/07/04 06:42:33;;;;;;;11.77;3.97;;;21.30;99.90;;;;;;5069920;28;20204;-83
2023/07/04 06:45:00;;;;;;;11.85;4.35;;;21.30;99.90;;;;;;5065603;28;20209;-83
2023/07/04 06:47:27;;;;;;;12.02;4.72;;;21.30;99.90;;;;;;5065116;28;20207;-84
2023/07/04 06:49:55;;;;;;;8.82;3.35;;;21.30;99.90;;;;;;5062624;28;20216;-84
2023/07/04 06:52:22;;;;;;;7.28;3.65;;;21.30;99.90;;;;;;5068342;28;20713;-84
2023/07/04 06:54:52;;;;;;;8.73;4.25;;;21.30;99.90;;;;;;5074343;28;20197;-83
2023/07/04 06:57:19;;;;;;;8.63;3.78;;;21.40;99.90;;;;;;5063265;28;20211;-83
2023/07/04 06:59:46;;;;;;;7.88;3.90;;;21.40;99.90;;;;;;5069137;28;20197;-83
2023/07/04 07:02:14;;;;;;;10.45;4.75;;;21.40;99.90;;;;;;5074651;28;20197;-84
2023/07/04 07:04:41;;;;;;;9.52;3.90;;;21.50;99.90;;;;;;5072831;28;20647;-83
2023/07/04 07:07:10;;;;;;;7.68;3.90;;;21.50;99.90;;;;;;5068537;28;20266;-83
2023/07/04 07:09:40;;;;;;;6.63;4.00;;;21.60;99.90;;;;;;5073321;28;20296;-83
2023/07/04 07:12:09;;;;;;;9.70;4.38;;;21.60;99.90;;;;;;5080042;28;20657;-83
2023/07/04 07:14:37;;;;;;;12.93;4.70;;;21.70;99.90;;;;;;5071777;28;20200;-83
2023/07/04 07:17:05;;;;;;;10.73;4.32;;;21.80;99.90;;;;;;5075535;28;20212;-83
2023/07/04 07:19:32;;;;;;;10.70;4.82;;;21.90;99.90;;;;;;5074867;28;20205;-83
2023/07/04 07:22:00;;;;;;;10.88;4.03;;;21.90;99.90;;;;;;5069302;28;20735;-83
2023/07/04 07:24:28;;;;;;;8.23;4.00;;;22.00;99.90;;;;;;5073330;28;20378;-84
2023/07/04 07:26:55;;;;;;;12.38;4.20;;;22.00;99.90;;;;;;5067428;28;20302;-84
2023/07/04 07:29:23;;;;;;;6.35;3.90;;;22.00;99.90;;;;;;5075379;28;20200;-83
2023/07/04 07:31:51;;;;;;;8.10;3.80;;;22.10;99.90;;;;;;5073552;28;20242;-83
2023/07/04 07:34:18;;;;;;;10.27;4.25;;;22.30;99.90;;;;;;5072035;28;20196;-83
2023/07/04 07:36:46;;;;;;;12.77;5.03;;;22.40;99.90;;;;;;5073909;28;20216;-82
2023/07/04 07:39:15;;;;;;;7.05;3.78;;;22.40;99.90;;;;;;5072008;28;20203;-83
2023/07/04 07:41:44;;;;;;;7.80;4.25;;;22.40;99.90;;;;;;5062915;28;20208;-83
2023/07/04 07:44:13;;;;;;;10.27;4.07;;;22.50;99.90;;;;;;5064159;28;20196;-83
2023/07/04 07:46:42;;;;;;;7.60;4.13;;;22.50;99.90;;;;;;5072724;28;20204;-83
2023/07/04 07:49:09;;;;;;;9.25;4.07;;;22.60;99.90;;;;;;5071744;28;20749;-83
2023/07/04 07:51:37;;;;;;;10.48;3.80;;;22.60;99.90;;;;;;5072336;28;20619;-82
2023/07/04 07:54:06;;;;;;;6.80;3.75;;;22.60;99.90;;;;;;5073474;28;20279;-83
2023/07/04 07:56:38;;;;;;;11.73;4.28;;;22.80;99.90;;;;;;5070466;28;20587;-83
2023/07/04 07:59:04;;;;;;;8.05;3.67;;;23.00;99.90;;;;;;5071670;28;20266;-83
2023/07/04 08:01:33;;;;;;;10.77;3.90;;;23.10;99.90;;;;;;5077593;28;20197;-83
2023/07/04 08:04:03;;;;;;;8.50;3.90;;;23.40;99.90;;;;;;5075322;28;20551;-83
2023/07/04 08:06:34;;;;;;;8.18;3.35;;;23.60;99.90;;;;;;5076648;28;20192;-83
2023/07/04 08:09:02;;;;;;;11.13;3.80;;;24.00;99.90;;;;;;5074113;28;20265;-84
2023/07/04 08:11:30;;;;;;;10.23;3.78;;;24.40;99.90;;;;;;5074084;28;20251;-84
2023/07/04 08:13:57;;;;;;;10.38;3.80;;;24.60;99.90;;;;;;5079329;28;20192;-84
2023/07/04 08:16:28;;;;;;;10.43;3.70;;;24.90;99.90;;;;;;5077351;28;20200;-84
2023/07/04 08:18:55;;;;;;;8.07;3.78;;;25.00;99.90;;;;;;5077333;28;20200;-84
2023/07/04 08:21:24;;;;;;;6.53;3.35;;;25.00;99.90;;;;;;5077354;28;20196;-84
2023/07/04 08:23:54;;;;;;;10.48;3.72;;;25.10;99.90;;;;;;5074121;28;20662;-83
2023/07/04 08:26:24;;;;;;;9.07;3.53;;;25.10;99.90;;;;;;5090807;28;20241;-84
2023/07/04 08:28:53;;;;;;;7.30;3.78;;;25.10;99.90;;;;;;5079069;28;20200;-84
2023/07/04 08:31:21;;;;;;;8.63;3.60;;;25.00;99.90;;;;;;5077114;28;20686;-84
2023/07/04 08:33:49;;;;;;;6.43;3.80;;;25.00;99.90;;;;;;5076991;28;20204;-84
2023/07/04 08:36:17;;;;;;;12.60;4.35;;;25.00;99.90;;;;;;5074971;28;20658;-84
2023/07/04 08:38:49;;;;;;;12.85;4.18;;;24.90;99.90;;;;;;5054525;28;20383;-84
2023/07/04 08:41:38;;;;;;;8.63;3.70;;;24.90;99.90;;;;;;5077456;28;20196;-84
2023/07/04 08:44:09;;;;;;;6.85;3.60;;;24.90;99.90;;;;;;5078461;28;20735;-84
2023/07/04 08:46:40;;;;;;;11.43;3.78;;;25.00;99.90;;;;;;5078236;28;20218;-84
2023/07/04 08:49:17;;;;;;;7.07;3.75;;;25.10;99.90;;;;;;5078387;28;20253;-83
2023/07/04 08:51:50;;;;;;;7.90;3.50;;;25.10;99.90;;;;;;5078217;28;20257;-83
2023/07/04 08:54:18;;;;;;;11.73;3.47;;;25.10;99.90;;;;;;5078095;28;20227;-84
2023/07/04 08:56:47;;;;;;;8.82;3.80;;;25.10;99.90;;;;;;5073918;28;20251;-84
2023/07/04 08:59:21;;;;;;;7.82;3.83;;;25.20;99.90;;;;;;5077537;28;20224;-83
2023/07/04 09:02:06;;;;;;;8.15;3.13;;;25.20;99.90;;;;;;5077729;28;20670;-84
2023/07/04 09:04:47;;;;;;;8.85;3.35;;;25.10;99.90;;;;;;5077546;28;20674;-84
2023/07/04 09:07:21;;;;;;;9.35;3.78;;;24.90;99.90;;;;;;5077742;28;20193;-84
2023/07/04 09:09:59;;;;;;;6.78;3.58;;;24.80;99.90;;;;;;5077930;28;20200;-84
2023/07/04 09:12:30;;;;;;;7.93;3.10;;;24.80;99.90;;;;;;5077841;28;20198;-83
2023/07/04 09:15:02;;;;;;;8.20;3.47;;;25.00;99.90;;;;;;5075322;28;20214;-83
2023/07/04 09:17:35;;;;;;;4.47;3.20;;;25.30;99.90;;;;;;5074708;28;20266;-85
2023/07/04 09:20:04;;;;;;;6.50;3.30;;;25.50;99.90;;;;;;5078096;28;20245;-84
2023/07/04 09:22:32;;;;;;;8.30;3.60;;;25.80;99.90;;;;;;5077609;28;20279;-84
2023/07/04 09:25:00;;;;;;;8.38;3.63;;;25.90;99.90;;;;;;5077795;28;20200;-83
2023/07/04 09:27:29;;;;;;;6.78;3.22;;;25.90;99.90;;;;;;5077218;28;20211;-84
2023/07/04 09:29:57;;;;;;;6.03;3.25;;;25.80;99.90;;;;;;5074668;28;20192;-83
2023/07/04 09:32:24;;;;;;;5.90;2.60;;;25.40;99.90;;;;;;5075352;28;20200;-84
2023/07/04 09:34:55;;;;;;;7.22;3.30;;;25.10;99.90;;;;;;5077798;28;20250;-83
2023/07/04 09:37:25;;;;;;;6.63;3.30;;;24.60;99.90;;;;;;5077355;28;20297;-84
2023/07/04 09:39:54;;;;;;;8.68;2.88;;;24.20;99.90;;;;;;5077220;28;20254;-83
2023/07/04 09:42:25;;;;;;;6.38;2.97;;;24.10;99.90;;;;;;5077362;28;20203;-84
2023/07/04 09:44:54;;;;;;;7.72;4.03;;;24.00;99.90;;;;;;5073945;28;20196;-83
2023/07/04 09:47:25;;;;;;;5.93;2.60;;;24.10;99.90;;;;;;5075600;28;20188;-84
2023/07/04 09:50:10;;;;;;;9.25;2.70;;;24.30;99.90;;;;;;5077665;28;20196;-84
2023/07/04 09:52:38;;;;;;;7.72;2.90;;;24.60;99.90;;;;;;5076868;28;20257;-84
2023/07/04 09:55:13;;;;;;;7.75;2.58;;;24.80;99.90;;;;;;5077019;28;20210;-83
2023/07/04 09:57:42;;;;;;;6.80;2.65;;;25.00;99.90;;;;;;5075811;28;20246;-84
2023/07/04 10:00:19;;;;;;;6.68;2.53;;;25.20;99.90;;;;;;5088238;28;20252;-84
2023/07/04 10:02:48;;;;;;;6.22;2.88;;;25.30;99.90;;;;;;5057225;28;20641;-84
2023/07/04 10:05:28;;;;;;;5.90;2.95;;;25.20;99.90;;;;;;5076207;28;20195;-84
2023/07/04 10:08:07;;;;;;;4.35;2.40;;;25.10;99.90;;;;;;5075305;28;20191;-84
2023/07/04 10:10:37;;;;;;;7.05;2.97;;;25.10;99.90;;;;;;5076737;28;20242;-84
2023/07/04 10:13:08;;;;;;;7.82;2.50;;;25.20;99.90;;;;;;5076823;28;20201;-84
2023/07/04 10:15:41;;;;;;;4.57;2.33;;;25.20;99.90;;;;;;5076604;28;20237;-84
2023/07/04 10:18:22;;;;;;;3.75;2.55;;;25.10;99.90;;;;;;5074761;28;20211;-83
2023/07/04 10:20:54;;;;;;;4.85;2.40;;;25.00;99.90;;;;;;5057639;28;20684;-84
2023/07/04 10:23:22;;;;;;;5.25;2.17;;;24.90;99.90;;;;;;5091393;28;20282;-84
2023/07/04 10:25:51;;;;;;;6.90;2.60;;;24.90;99.90;;;;;;5077161;28;20193;-84
2023/07/04 10:28:22;;;;;;;7.05;2.60;;;24.80;99.90;;;;;;5076399;28;20212;-84
2023/07/04 10:30:54;;;;;;;6.10;2.22;;;24.70;99.90;;;;;;5076707;28;20200;-83
2023/07/04 10:33:25;;;;;;;4.57;2.03;;;24.90;99.90;;;;;;5087293;28;20223;-83
2023/07/04 10:35:52;;;;;;;5.15;2.30;;;25.10;99.90;;;;;;5073056;28;20275;-83
2023/07/04 10:38:29;;;;;;;5.35;2.50;;;25.10;99.90;;;;;;5075381;28;20243;-84
2023/07/04 10:40:59;;;;;;;4.38;1.90;;;25.10;99.90;;;;;;5074886;28;20724;-84
2023/07/04 10:43:30;;;;;;;5.10;2.47;;;25.20;99.90;;;;;;5076483;28;20196;-84
2023/07/04 10:46:01;;;;;;;3.75;2.50;;;25.00;99.90;;;;;;5076345;28;20209;-84
2023/07/04 10:48:32;;;;;;;5.07;1.80;;;25.00;99.90;;;;;;5076396;28;20199;-84
2023/07/04 10:51:04;;;;;;;4.57;2.03;;;24.80;99.90;;;;;;5073859;28;20196;-83
2023/07/04 10:53:31;;;;;;;5.68;2.00;;;24.60;99.90;;;;;;5073649;28;20222;-84
2023/07/04 10:56:05;;;;;;;4.10;1.98;;;24.40;99.90;;;;;;5076686;28;20189;-84
2023/07/04 10:58:37;;;;;;;4.68;1.90;;;24.40;99.90;;;;;;5076098;28;20235;-84
2023/07/04 11:01:12;;;;;;;3.85;1.80;;;24.50;99.90;;;;;;5076443;28;20258;-84
2023/07/04 11:03:46;;;;;;;2.75;1.77;;;24.70;99.90;;;;;;5076319;28;20241;-84
2023/07/04 11:06:18;;;;;;;5.47;1.70;;;25.10;99.90;;;;;;5075613;28;20187;-84
2023/07/04 11:08:46;;;;;;;4.05;1.80;;;25.30;99.90;;;;;;5056050;28;20299;-84
2023/07/04 11:11:16;;;;;;;5.07;2.00;;;25.40;99.90;;;;;;5084274;28;20192;-84
2023/07/04 11:13:51;;;;;;;4.20;2.08;;;25.30;99.90;;;;;;5083364;28;20191;-84
2023/07/04 11:16:20;;;;;;;6.53;2.30;;;25.20;99.90;;;;;;5079139;28;20195;-84
2023/07/04 11:19:03;;;;;;;5.22;2.38;;;25.20;99.90;;;;;;5075962;28;20309;-84
2023/07/04 11:21:30;;;;;;;4.60;2.40;;;25.40;99.90;;;;;;5076059;28;20195;-84
2023/07/04 11:24:12;;;;;;;4.20;1.95;;;25.90;99.90;;;;;;5073210;28;20188;-84
2023/07/04 11:26:55;;;;;;;7.30;2.20;;;26.40;99.90;;;;;;5071900;28;20736;-84
2023/07/04 11:29:24;;;;;;;4.40;2.17;;;26.80;99.90;;;;;;5088359;28;20718;-84
2023/07/04 11:32:18;;;;;;;4.03;2.28;;;27.00;99.90;;;;;;5080072;28;20196;-84
2023/07/04 11:34:48;;;;;;;3.20;2.13;;;27.20;99.90;;;;;;5079713;28;20196;-84
2023/07/04 11:37:23;;;;;;;4.20;2.30;;;27.00;99.90;;;;;;5079545;28;20223;-84
2023/07/04 11:39:54;;;;;;;6.45;2.35;;;26.40;99.90;;;;;;5079638;28;20200;-84
2023/07/04 11:42:24;;;;;;;5.28;2.50;;;26.00;99.90;;;;;;5079322;28;20191;-84
2023/07/04 11:45:01;;;;;;;5.32;2.20;;;25.70;99.90;;;;;;5075989;28;20215;-84
2023/07/04 11:47:37;;;;;;;5.10;1.98;;;25.60;99.90;;;;;;5077276;28;20674;-84
2023/07/04 11:50:12;;;;;;;9.15;2.83;;;25.40;99.90;;;;;;5078935;28;20204;-84
2023/07/04 11:52:42;;;;;;;5.10;2.47;;;25.20;99.90;;;;;;5079320;28;20196;-84
2023/07/04 11:55:13;;;;;;;4.38;2.35;;;25.20;99.90;;;;;;5079147;28;20222;-84
2023/07/04 11:58:16;;;;;;;4.50;2.30;;;25.00;99.90;;;;;;5079309;28;20572;-85
2023/07/04 12:01:12;;;;;;;3.83;2.00;;;24.80;99.90;;;;;;5079205;28;20198;-84
2023/07/04 12:03:58;;;;;;;3.95;2.20;;;24.70;99.90;;;;;;5017524;28;20264;-84
2023/07/04 12:06:48;;;;;;;9.73;2.35;;;24.80;99.90;;;;;;5017411;28;20194;-84
2023/07/04 12:09:25;;;;;;;6.45;2.20;;;25.00;99.90;;;;;;5016828;28;20614;-84
2023/07/04 12:11:54;;;;;;;5.78;2.22;;;25.10;99.90;;;;;;4998892;28;20660;-84
2023/07/04 12:14:22;;;;;;;3.42;2.17;;;25.20;99.90;;;;;;5015992;28;20195;-84
2023/07/04 12:16:50;;;;;;;6.63;2.30;;;25.50;99.90;;;;;;5016340;28;20692;-84
2023/07/04 12:19:18;;;;;;;4.90;2.40;;;25.80;99.90;;;;;;5016822;28;20782;-84
2023/07/04 12:21:48;;;;;;;2.95;1.73;;;25.90;99.90;;;;;;5016858;28;20620;-84
2023/07/04 12:24:19;;;;;;;4.72;2.10;;;26.00;99.90;;;;;;5016373;28;20197;-85
2023/07/04 12:26:53;;;;;;;82.03;7.03;;;26.00;99.90;;;;;;4996931;28;20228;-84
2023/07/04 12:29:20;;;;;;;6.57;2.25;;;26.00;99.90;;;;;;5025423;28;20664;-84
2023/07/04 12:31:47;;;;;;;8.45;2.55;;;26.30;99.90;;;;;;5016847;28;20221;-84
2023/07/04 12:34:16;;;;;;;3.33;1.95;;;26.30;99.90;;;;;;5016778;28;20663;-84
2023/07/04 12:36:44;;;;;;;4.03;2.10;;;26.30;99.90;;;;;;5016573;28;20281;-85
2023/07/04 12:39:15;;;;;;;6.47;2.30;;;26.30;99.90;;;;;;5040349;28;20205;-84
2023/07/04 12:41:43;;;;;;;3.40;2.00;;;26.30;99.90;;;;;;5074189;28;20633;-84
2023/07/04 12:44:13;;;;;;;4.38;1.77;;;26.40;99.90;;;;;;5078837;28;20192;-84
2023/07/04 12:46:43;;;;;;;3.20;1.80;;;26.30;99.90;;;;;;5078381;28;20207;-84
2023/07/04 12:49:12;;;;;;;5.65;1.85;;;26.30;99.90;;;;;;5078363;28;20192;-84
2023/07/04 12:51:44;;;;;;;5.80;2.20;;;26.10;99.90;;;;;;5078304;28;20208;-84
2023/07/04 12:54:14;;;;;;;3.88;2.17;;;26.10;99.90;;;;;;5077120;28;20277;-84
2023/07/04 12:56:46;;;;;;;9.18;2.45;;;26.30;99.90;;;;;;5074156;28;20192;-84
2023/07/04 12:59:32;;;;;;;3.35;2.13;;;26.40;99.90;;;;;;5085718;28;20208;-84